createdAt,value
2023-09-02T00:01:53.009Z,100.00
2023-09-02T00:04:19.489Z,100.00
2023-09-02T00:06:45.988Z,100.00
2023-09-02T00:09:13.737Z,100.00
2023-09-02T00:11:40.235Z,100.00
2023-09-02T00:14:06.742Z,100.00
2023-09-02T00:16:33.181Z,100.00
2023-09-02T00:18:59.639Z,100.00
2023-09-02T00:21:26.086Z,100.00
2023-09-02T00:24:02.131Z,100.00
2023-09-02T00:26:29.345Z,100.00
2023-09-02T00:28:55.757Z,100.00
2023-09-02T00:31:22.247Z,100.00
2023-09-02T00:33:48.806Z,100.00
2023-09-02T00:36:15.409Z,100.00
2023-09-02T00:38:42.354Z,100.00
2023-09-02T00:41:27.890Z,100.00
2023-09-02T00:43:55.492Z,100.00
2023-09-02T00:46:22.786Z,100.00
2023-09-02T00:48:49.437Z,100.00
2023-09-02T00:51:15.957Z,100.00
2023-09-02T00:53:42.367Z,100.00
2023-09-02T00:56:08.834Z,100.00
2023-09-02T00:58:36.758Z,100.00
2023-09-02T01:01:04.507Z,100.00
2023-09-02T01:03:31.348Z,100.00
2023-09-02T01:05:59.186Z,100.00
2023-09-02T01:08:27.137Z,100.00
2023-09-02T01:10:54.610Z,100.00
2023-09-02T01:13:21.308Z,100.00
2023-09-02T01:15:47.748Z,100.00
2023-09-02T01:18:14.245Z,100.00
2023-09-02T01:20:46.625Z,100.00
2023-09-02T01:23:16.231Z,100.00
2023-09-02T01:26:15.060Z,100.00
2023-09-02T01:28:44.154Z,100.00
2023-09-02T01:31:13.899Z,100.00
2023-09-02T01:33:42.164Z,100.00
2023-09-02T01:36:14.054Z,100.00
2023-09-02T01:38:41.839Z,100.00
2023-09-02T01:41:10.878Z,100.00
2023-09-02T01:43:38.636Z,100.00
2023-09-02T01:46:06.875Z,100.00
2023-09-02T01:48:34.585Z,100.00
2023-09-02T01:51:02.374Z,100.00
2023-09-02T01:53:30.390Z,100.00
2023-09-02T01:55:58.090Z,100.00
2023-09-02T01:58:24.756Z,100.00
2023-09-02T02:00:51.363Z,100.00
2023-09-02T02:03:34.469Z,100.00
2023-09-02T02:06:01.785Z,100.00
2023-09-02T02:08:59.208Z,100.00
2023-09-02T02:11:30.047Z,100.00
2023-09-02T02:14:04.252Z,100.00
2023-09-02T02:16:31.992Z,100.00
2023-09-02T02:19:00.196Z,100.00
2023-09-02T02:21:30.637Z,100.00
2023-09-02T02:23:58.258Z,100.00
2023-09-02T02:26:24.865Z,100.00
2023-09-02T02:28:51.302Z,100.00
2023-09-02T02:31:17.777Z,100.00
2023-09-02T02:33:44.205Z,100.00
2023-09-02T02:36:12.209Z,100.00
2023-09-02T02:38:38.638Z,100.00
2023-09-02T02:41:05.036Z,100.00
2023-09-02T02:43:31.556Z,100.00
2023-09-02T02:45:58.337Z,100.00
2023-09-02T02:48:31.031Z,100.00
2023-09-02T02:50:58.390Z,100.00
2023-09-02T02:53:25.330Z,100.00
2023-09-02T02:55:52.054Z,100.00
2023-09-02T02:58:18.519Z,100.00
2023-09-02T03:00:45.824Z,100.00
2023-09-02T03:03:12.419Z,100.00
2023-09-02T03:05:42.010Z,100.00
2023-09-02T03:08:09.804Z,100.00
2023-09-02T03:10:36.981Z,100.00
2023-09-02T03:13:04.430Z,100.00
2023-09-02T03:15:31.120Z,100.00
2023-09-02T03:17:57.671Z,100.00
2023-09-02T03:20:24.415Z,100.00
2023-09-02T03:22:50.946Z,100.00
2023-09-02T03:25:17.404Z,100.00
2023-09-02T03:27:43.865Z,100.00
2023-09-02T03:30:10.726Z,100.00
2023-09-02T03:32:37.228Z,100.00
2023-09-02T03:35:05.540Z,100.00
2023-09-02T03:37:32.033Z,100.00
2023-09-02T03:39:58.555Z,100.00
2023-09-02T03:42:25.080Z,100.00
2023-09-02T03:44:51.812Z,100.00
2023-09-02T03:47:18.328Z,100.00
2023-09-02T03:49:44.853Z,100.00
2023-09-02T03:52:11.301Z,100.00
2023-09-02T03:54:38.740Z,100.00
2023-09-02T03:57:06.605Z,100.00
2023-09-02T03:59:33.069Z,100.00
2023-09-02T04:01:59.453Z,100.00
2023-09-02T04:04:27.054Z,100.00
2023-09-02T04:06:53.497Z,100.00
2023-09-02T04:09:19.922Z,100.00
2023-09-02T04:11:46.382Z,100.00
2023-09-02T04:14:12.865Z,100.00
2023-09-02T04:16:39.637Z,100.00
2023-09-02T04:19:06.223Z,100.00
2023-09-02T04:21:33.127Z,100.00
2023-09-02T04:23:59.654Z,100.00
2023-09-02T04:26:26.202Z,100.00
2023-09-02T04:28:56.715Z,100.00
2023-09-02T04:31:23.843Z,100.00
2023-09-02T04:33:50.333Z,100.00
2023-09-02T04:36:16.831Z,100.00
2023-09-02T04:38:43.303Z,100.00
2023-09-02T04:41:09.852Z,100.00
2023-09-02T04:43:36.494Z,100.00
2023-09-02T04:46:03.673Z,100.00
2023-09-02T04:48:30.373Z,100.00
2023-09-02T04:50:57.785Z,100.00
2023-09-02T04:53:24.360Z,100.00
2023-09-02T04:55:51.722Z,100.00
2023-09-02T04:58:19.596Z,100.00
2023-09-02T05:00:46.141Z,100.00
2023-09-02T05:03:12.703Z,100.00
2023-09-02T05:05:39.174Z,100.00
2023-09-02T05:08:05.789Z,100.00
2023-09-02T05:10:32.261Z,100.00
2023-09-02T05:12:58.692Z,100.00
2023-09-02T05:15:25.271Z,100.00
2023-09-02T05:17:52.175Z,100.00
2023-09-02T05:20:18.638Z,100.00
2023-09-02T05:22:45.414Z,100.00
2023-09-02T05:25:11.898Z,100.00
2023-09-02T05:27:40.021Z,100.00
2023-09-02T05:30:07.414Z,100.00
2023-09-02T05:32:33.991Z,100.00
2023-09-02T05:35:00.450Z,100.00
2023-09-02T05:37:26.952Z,100.00
2023-09-02T05:39:53.473Z,100.00
2023-09-02T05:42:19.905Z,100.00
2023-09-02T05:44:46.421Z,100.00
2023-09-02T05:47:14.276Z,100.00
2023-09-02T05:49:41.128Z,100.00
2023-09-02T05:52:07.668Z,100.00
2023-09-02T05:54:34.297Z,100.00
2023-09-02T05:57:01.264Z,100.00
2023-09-02T05:59:27.738Z,100.00
2023-09-02T06:01:56.224Z,100.00
2023-09-02T06:04:22.676Z,100.00
2023-09-02T06:06:49.102Z,100.00
2023-09-02T06:09:15.532Z,100.00
2023-09-02T06:11:41.949Z,100.00
2023-09-02T06:14:08.368Z,100.00
2023-09-02T06:16:34.883Z,100.00
2023-09-02T06:19:01.335Z,100.00
2023-09-02T06:21:27.853Z,100.00
2023-09-02T06:23:54.311Z,100.00
2023-09-02T06:26:20.756Z,100.00
2023-09-02T06:28:47.861Z,100.00
2023-09-02T06:31:14.480Z,100.00
2023-09-02T06:33:40.943Z,100.00
2023-09-02T06:36:11.855Z,100.00
2023-09-02T06:38:38.519Z,100.00
2023-09-02T06:41:16.094Z,100.00
2023-09-02T06:43:43.243Z,100.00
2023-09-02T06:46:17.764Z,100.00
2023-09-02T06:48:45.488Z,100.00
2023-09-02T06:51:12.438Z,100.00
2023-09-02T06:53:42.570Z,100.00
2023-09-02T06:56:10.027Z,100.00
2023-09-02T06:58:38.528Z,100.00
2023-09-02T07:01:04.949Z,100.00
2023-09-02T07:03:31.515Z,100.00
2023-09-02T07:06:08.107Z,100.00
2023-09-02T07:08:34.936Z,100.00
2023-09-02T07:11:01.377Z,100.00
2023-09-02T07:13:27.895Z,100.00
2023-09-02T07:16:01.137Z,100.00
2023-09-02T07:18:27.713Z,100.00
2023-09-02T07:20:58.857Z,100.00
2023-09-02T07:23:25.463Z,100.00
2023-09-02T07:25:51.893Z,100.00
2023-09-02T07:28:18.338Z,100.00
2023-09-02T07:30:44.946Z,100.00
2023-09-02T07:33:11.484Z,100.00
2023-09-02T07:35:39.157Z,100.00
2023-09-02T07:38:06.079Z,100.00
2023-09-02T07:40:32.603Z,100.00
2023-09-02T07:43:01.353Z,100.00
2023-09-02T07:45:27.898Z,100.00
2023-09-02T07:47:54.901Z,100.00
2023-09-02T07:50:21.804Z,100.00
2023-09-02T07:52:49.416Z,100.00
2023-09-02T07:55:18.322Z,100.00
2023-09-02T07:57:45.247Z,100.00
2023-09-02T08:00:12.137Z,100.00
2023-09-02T08:02:38.660Z,100.00
2023-09-02T08:05:05.511Z,100.00
2023-09-02T08:07:32.968Z,100.00
2023-09-02T08:09:59.564Z,100.00
2023-09-02T08:12:25.988Z,100.00
2023-09-02T08:14:52.441Z,100.00
2023-09-02T08:17:20.765Z,100.00
2023-09-02T08:19:48.020Z,100.00
2023-09-02T08:22:14.764Z,100.00
2023-09-02T08:24:42.876Z,100.00
2023-09-02T08:27:09.864Z,100.00
2023-09-02T08:29:36.340Z,100.00
2023-09-02T08:32:02.850Z,100.00
2023-09-02T08:34:29.717Z,100.00
2023-09-02T08:36:56.185Z,100.00
2023-09-02T08:39:22.642Z,100.00
2023-09-02T08:41:50.588Z,100.00
2023-09-02T08:44:18.959Z,100.00
2023-09-02T08:46:47.112Z,100.00
2023-09-02T08:49:15.674Z,100.00
2023-09-02T08:51:43.910Z,100.00
2023-09-02T08:54:11.655Z,100.00
2023-09-02T08:56:42.566Z,100.00
2023-09-02T08:59:13.799Z,100.00
2023-09-02T09:01:45.460Z,100.00
2023-09-02T09:04:15.594Z,100.00
2023-09-02T09:06:42.843Z,100.00
2023-09-02T09:09:10.889Z,100.00
2023-09-02T09:11:39.904Z,100.00
2023-09-02T09:14:11.036Z,100.00
2023-09-02T09:16:40.223Z,100.00
2023-09-02T09:19:07.829Z,100.00
2023-09-02T09:21:36.138Z,100.00
2023-09-02T09:24:04.238Z,100.00
2023-09-02T09:26:32.312Z,100.00
2023-09-02T09:29:00.394Z,100.00
2023-09-02T09:31:30.024Z,100.00
2023-09-02T09:34:02.768Z,100.00
2023-09-02T09:36:31.318Z,100.00
2023-09-02T09:39:03.442Z,100.00
2023-09-02T09:41:31.228Z,100.00
2023-09-02T09:44:18.636Z,100.00
2023-09-02T09:46:45.074Z,100.00
2023-09-02T09:49:33.385Z,100.00
2023-09-02T09:52:02.737Z,100.00
2023-09-02T09:54:42.836Z,100.00
2023-09-02T09:57:12.583Z,100.00
2023-09-02T09:59:39.202Z,100.00
2023-09-02T10:02:06.935Z,100.00
2023-09-02T10:04:34.673Z,100.00
2023-09-02T10:07:02.289Z,100.00
2023-09-02T10:09:44.007Z,100.00
2023-09-02T10:12:14.956Z,100.00
2023-09-02T10:14:49.274Z,100.00
2023-09-02T10:17:16.772Z,100.00
2023-09-02T10:19:47.025Z,100.00
2023-09-02T10:22:21.081Z,100.00
2023-09-02T10:25:07.935Z,100.00
2023-09-02T10:27:41.653Z,100.00
2023-09-02T10:30:16.095Z,100.00
2023-09-02T10:32:46.272Z,100.00
2023-09-02T10:35:18.615Z,100.00
2023-09-02T10:37:52.591Z,100.00
2023-09-02T10:40:28.648Z,100.00
2023-09-02T10:42:56.239Z,100.00
2023-09-02T10:45:23.511Z,100.00
2023-09-02T10:47:51.513Z,100.00
2023-09-02T10:50:19.215Z,100.00
2023-09-02T10:52:49.839Z,100.00
2023-09-02T10:55:23.804Z,100.00
2023-09-02T10:57:57.402Z,100.00
2023-09-02T11:00:30.233Z,100.00
2023-09-02T11:03:00.307Z,100.00
2023-09-02T11:05:29.268Z,100.00
2023-09-02T11:07:56.676Z,100.00
2023-09-02T11:10:53.583Z,100.00
2023-09-02T11:13:21.431Z,100.00
2023-09-02T11:16:17.862Z,100.00
2023-09-02T11:18:44.603Z,100.00
2023-09-02T11:21:12.164Z,100.00
2023-09-02T11:23:39.846Z,100.00
2023-09-02T11:26:07.921Z,100.00
2023-09-02T11:28:36.569Z,100.00
2023-09-02T11:31:08.161Z,100.00
2023-09-02T11:33:35.591Z,100.00
2023-09-02T11:36:13.861Z,100.00
2023-09-02T11:38:40.512Z,100.00
2023-09-02T11:41:09.328Z,100.00
2023-09-02T11:43:38.446Z,100.00
2023-09-02T11:46:05.205Z,100.00
2023-09-02T11:48:32.141Z,100.00
2023-09-02T11:50:59.893Z,100.00
2023-09-02T11:53:30.935Z,100.00
2023-09-02T11:55:58.180Z,100.00
2023-09-02T11:58:24.989Z,100.00
2023-09-02T12:00:51.612Z,100.00
2023-09-02T12:03:26.240Z,100.00
2023-09-02T12:05:55.347Z,100.00
2023-09-02T12:08:23.402Z,100.00
2023-09-02T12:10:51.510Z,100.00
2023-09-02T12:13:20.622Z,100.00
2023-09-02T12:15:51.329Z,100.00
2023-09-02T12:18:18.732Z,100.00
2023-09-02T12:20:46.918Z,100.00
2023-09-02T12:23:14.018Z,100.00
2023-09-02T12:25:41.922Z,100.00
2023-09-02T12:28:15.944Z,100.00
2023-09-02T12:30:49.315Z,100.00
2023-09-02T12:33:17.577Z,100.00
2023-09-02T12:35:50.902Z,100.00
2023-09-02T12:38:19.516Z,100.00
2023-09-02T12:40:53.614Z,100.00
2023-09-02T12:43:30.045Z,100.00
2023-09-02T12:45:57.701Z,100.00
2023-09-02T12:48:25.038Z,100.00
2023-09-02T12:50:51.644Z,100.00
2023-09-02T12:53:18.382Z,100.00
2023-09-02T12:55:46.213Z,97.74
2023-09-02T12:58:13.134Z,91.62
2023-09-02T13:00:39.610Z,94.92
2023-09-02T13:03:06.345Z,94.10
2023-09-02T13:05:33.210Z,91.08
2023-09-02T13:08:00.181Z,90.18
2023-09-02T13:10:26.880Z,100.00
2023-09-02T13:12:54.635Z,94.32
2023-09-02T13:15:26.086Z,99.86
2023-09-02T13:17:52.927Z,99.68
2023-09-02T13:20:20.103Z,100.00
2023-09-02T13:22:48.253Z,100.00
2023-09-02T13:25:17.091Z,97.19
2023-09-02T13:27:43.861Z,94.66
2023-09-02T13:30:11.622Z,99.26
2023-09-02T13:32:40.109Z,97.73
2023-09-02T13:35:15.180Z,97.68
2023-09-02T13:37:48.431Z,98.48
2023-09-02T13:40:20.867Z,97.99
2023-09-02T13:42:48.518Z,90.46
2023-09-02T13:45:14.966Z,89.37
2023-09-02T13:47:51.100Z,92.49
2023-09-02T13:50:19.435Z,87.77
2023-09-02T13:52:51.781Z,88.41
2023-09-02T13:55:19.239Z,86.75
2023-09-02T13:57:45.989Z,84.72
2023-09-02T14:00:33.273Z,84.81
2023-09-02T14:03:01.166Z,80.19
2023-09-02T14:05:27.823Z,83.64
2023-09-02T14:08:04.103Z,82.80
2023-09-02T14:10:32.630Z,85.75
2023-09-02T14:13:09.589Z,85.55
2023-09-02T14:15:36.882Z,84.97
2023-09-02T14:18:03.678Z,83.38
2023-09-02T14:20:30.168Z,85.75
2023-09-02T14:22:56.597Z,84.86
2023-09-02T14:25:23.098Z,82.01
2023-09-02T14:27:49.637Z,81.63
2023-09-02T14:30:16.424Z,81.03
2023-09-02T14:32:42.991Z,78.97
2023-09-02T14:35:09.664Z,79.89
2023-09-02T14:37:36.233Z,79.46
2023-09-02T14:40:04.856Z,81.63
2023-09-02T14:42:34.846Z,81.18
2023-09-02T14:45:03.532Z,84.35
2023-09-02T14:47:30.136Z,82.56
2023-09-02T14:49:56.835Z,80.73
2023-09-02T14:52:23.829Z,77.49
2023-09-02T14:54:50.940Z,83.25
2023-09-02T14:57:18.018Z,80.48
2023-09-02T14:59:49.129Z,80.29
2023-09-02T15:02:37.409Z,83.50
2023-09-02T15:05:27.246Z,82.26
2023-09-02T15:08:00.147Z,77.03
2023-09-02T15:10:28.076Z,82.15
2023-09-02T15:12:56.153Z,75.91
2023-09-02T15:15:25.646Z,74.83
2023-09-02T15:17:52.793Z,79.08
2023-09-02T15:20:27.034Z,76.20
2023-09-02T15:22:55.811Z,76.26
2023-09-02T15:25:26.206Z,74.91
2023-09-02T15:27:57.437Z,74.06
2023-09-02T15:30:30.242Z,74.73
2023-09-02T15:32:58.210Z,74.83
2023-09-02T15:35:25.022Z,76.07
2023-09-02T15:37:51.599Z,74.91
2023-09-02T15:40:28.756Z,78.44
2023-09-02T15:43:03.784Z,76.30
2023-09-02T15:45:30.711Z,74.05
2023-09-02T15:47:57.413Z,74.42
2023-09-02T15:50:24.069Z,76.45
2023-09-02T15:52:52.233Z,76.28
2023-09-02T15:55:20.040Z,77.49
2023-09-02T15:57:46.461Z,76.49
2023-09-02T16:00:13.233Z,78.06
2023-09-02T16:02:40.099Z,78.72
2023-09-02T16:05:07.119Z,76.80
2023-09-02T16:07:33.592Z,74.71
2023-09-02T16:10:00.012Z,74.89
2023-09-02T16:12:26.476Z,76.30
2023-09-02T16:14:52.916Z,76.40
2023-09-02T16:17:23.090Z,78.02
2023-09-02T16:19:50.273Z,76.82
2023-09-02T16:22:18.072Z,76.44
2023-09-02T16:24:44.686Z,75.56
2023-09-02T16:27:11.145Z,77.05
2023-09-02T16:29:38.326Z,77.61
2023-09-02T16:32:06.294Z,75.96
2023-09-02T16:34:34.590Z,76.70
2023-09-02T16:37:02.028Z,77.50
2023-09-02T16:39:28.784Z,78.49
2023-09-02T16:41:55.356Z,79.04
2023-09-02T16:44:21.851Z,79.38
2023-09-02T16:46:51.031Z,78.48
2023-09-02T16:49:19.228Z,80.42
2023-09-02T16:51:45.618Z,79.77
2023-09-02T16:54:12.436Z,80.81
2023-09-02T16:56:38.934Z,80.91
2023-09-02T16:59:05.370Z,81.82
2023-09-02T17:01:31.920Z,80.04
2023-09-02T17:03:59.063Z,82.23
2023-09-02T17:06:30.036Z,79.66
2023-09-02T17:08:56.938Z,80.83
2023-09-02T17:11:24.066Z,81.28
2023-09-02T17:13:51.257Z,81.35
2023-09-02T17:16:18.100Z,83.06
2023-09-02T17:18:44.798Z,83.64
2023-09-02T17:21:14.422Z,85.13
2023-09-02T17:23:41.269Z,85.62
2023-09-02T17:26:07.724Z,86.43
2023-09-02T17:28:34.264Z,87.91
2023-09-02T17:31:07.320Z,88.09
2023-09-02T17:33:35.432Z,88.35
2023-09-02T17:36:02.266Z,87.94
2023-09-02T17:38:28.809Z,87.96
2023-09-02T17:40:55.641Z,89.38
2023-09-02T17:43:22.103Z,89.13
2023-09-02T17:45:48.565Z,90.67
2023-09-02T17:48:15.239Z,89.98
2023-09-02T17:50:41.807Z,91.14
2023-09-02T17:53:08.400Z,92.39
2023-09-02T17:55:35.060Z,92.39
2023-09-02T17:58:05.310Z,93.76
2023-09-02T18:00:32.465Z,91.24
2023-09-02T18:03:01.021Z,92.88
2023-09-02T18:05:27.622Z,93.76
2023-09-02T18:07:54.029Z,94.45
2023-09-02T18:10:20.773Z,94.25
2023-09-02T18:12:47.163Z,95.29
2023-09-02T18:15:13.606Z,96.83
2023-09-02T18:17:40.209Z,98.37
2023-09-02T18:20:07.684Z,99.53
2023-09-02T18:22:34.339Z,99.32
2023-09-02T18:27:27.607Z,100.00
2023-09-02T18:29:54.008Z,100.00
2023-09-02T18:32:20.507Z,100.00
2023-09-02T18:34:46.944Z,100.00
2023-09-02T18:37:13.802Z,100.00
2023-09-02T18:39:40.403Z,100.00
2023-09-02T18:42:07.581Z,100.00
2023-09-02T18:44:34.169Z,100.00
2023-09-02T18:47:00.651Z,100.00
2023-09-02T18:49:27.098Z,100.00
2023-09-02T18:51:53.620Z,100.00
2023-09-02T18:54:21.178Z,100.00
2023-09-02T18:56:47.589Z,100.00
2023-09-02T18:59:14.083Z,100.00
2023-09-02T19:01:40.744Z,100.00
2023-09-02T19:04:09.191Z,100.00
2023-09-02T19:06:36.634Z,100.00
2023-09-02T19:09:03.665Z,100.00
2023-09-02T19:11:31.037Z,100.00
2023-09-02T19:13:57.888Z,100.00
2023-09-02T19:16:25.712Z,100.00
2023-09-02T19:18:53.073Z,100.00
2023-09-02T19:21:19.618Z,100.00
2023-09-02T19:23:46.637Z,100.00
2023-09-02T19:26:14.932Z,100.00
2023-09-02T19:28:41.717Z,100.00
2023-09-02T19:31:10.902Z,100.00
2023-09-02T19:33:37.413Z,100.00
2023-09-02T19:36:04.128Z,100.00
2023-09-02T19:38:30.633Z,100.00
2023-09-02T19:40:57.071Z,100.00
2023-09-02T19:43:24.613Z,100.00
2023-09-02T19:45:51.143Z,100.00
2023-09-02T19:48:17.813Z,100.00
2023-09-02T19:50:44.826Z,100.00
2023-09-02T19:53:12.594Z,100.00
2023-09-02T19:55:46.446Z,100.00
2023-09-02T19:58:14.735Z,100.00
2023-09-02T20:00:45.353Z,100.00
2023-09-02T20:03:16.905Z,100.00
2023-09-02T20:05:44.931Z,100.00
2023-09-02T20:08:11.572Z,100.00
2023-09-02T20:10:38.072Z,100.00
2023-09-02T20:13:04.678Z,100.00
2023-09-02T20:15:31.155Z,100.00
2023-09-02T20:17:58.139Z,100.00
2023-09-02T20:20:26.754Z,100.00
2023-09-02T20:22:53.635Z,100.00
2023-09-02T20:25:20.095Z,100.00
2023-09-02T20:27:46.559Z,100.00
2023-09-02T20:30:13.517Z,100.00
2023-09-02T20:32:40.063Z,100.00
2023-09-02T20:35:07.071Z,100.00
2023-09-02T20:37:33.612Z,100.00
2023-09-02T20:40:00.067Z,100.00
2023-09-02T20:42:26.590Z,100.00
2023-09-02T20:44:53.950Z,100.00
2023-09-02T20:47:20.442Z,100.00
2023-09-02T20:49:46.865Z,100.00
2023-09-02T20:52:13.416Z,100.00
2023-09-02T20:54:39.978Z,100.00
2023-09-02T20:57:06.397Z,100.00
2023-09-02T20:59:32.824Z,100.00
2023-09-02T21:01:59.336Z,100.00
2023-09-02T21:04:25.795Z,100.00
2023-09-02T21:06:52.259Z,100.00
2023-09-02T21:09:18.716Z,100.00
2023-09-02T21:11:45.120Z,100.00
2023-09-02T21:14:11.595Z,100.00
2023-09-02T21:16:38.263Z,100.00
2023-09-02T21:19:04.794Z,100.00
2023-09-02T21:21:31.457Z,100.00
2023-09-02T21:24:03.467Z,100.00
2023-09-02T21:26:30.009Z,100.00
2023-09-02T21:28:56.470Z,100.00
2023-09-02T21:31:23.110Z,100.00
2023-09-02T21:33:54.811Z,100.00
2023-09-02T21:36:21.693Z,100.00
2023-09-02T21:38:49.390Z,100.00
2023-09-02T21:41:15.808Z,100.00
2023-09-02T21:43:42.514Z,100.00
2023-09-02T21:46:10.750Z,100.00
2023-09-02T21:48:37.972Z,100.00
2023-09-02T21:51:10.437Z,100.00
2023-09-02T21:53:40.310Z,100.00
2023-09-02T21:56:10.940Z,100.00
2023-09-02T21:58:37.562Z,100.00
2023-09-02T22:01:05.437Z,100.00
2023-09-02T22:03:40.172Z,100.00
2023-09-02T22:06:11.559Z,100.00
2023-09-02T22:08:46.916Z,100.00
2023-09-02T22:11:14.641Z,100.00
2023-09-02T22:13:43.390Z,100.00
2023-09-02T22:16:17.065Z,100.00
2023-09-02T22:18:56.245Z,100.00
2023-09-02T22:21:26.836Z,100.00
2023-09-02T22:23:53.286Z,100.00
2023-09-02T22:26:19.744Z,100.00
2023-09-02T22:28:46.224Z,100.00
2023-09-02T22:31:12.713Z,100.00
2023-09-02T22:33:39.204Z,100.00
2023-09-02T22:36:05.735Z,100.00
2023-09-02T22:38:53.467Z,100.00
2023-09-02T22:41:21.114Z,100.00
2023-09-02T22:43:47.555Z,100.00
2023-09-02T22:46:14.171Z,100.00
2023-09-02T22:48:40.817Z,100.00
2023-09-02T22:51:07.710Z,100.00
2023-09-02T22:53:34.948Z,100.00
2023-09-02T22:56:09.045Z,100.00
2023-09-02T22:58:35.492Z,100.00
2023-09-02T23:01:05.285Z,100.00
2023-09-02T23:03:32.410Z,100.00
2023-09-02T23:06:10.949Z,100.00
2023-09-02T23:08:38.453Z,100.00
2023-09-02T23:11:04.917Z,100.00
2023-09-02T23:13:31.404Z,100.00
2023-09-02T23:16:03.095Z,100.00
2023-09-02T23:18:29.618Z,100.00
2023-09-02T23:20:57.268Z,100.00
2023-09-02T23:23:23.755Z,100.00
2023-09-02T23:25:53.908Z,100.00
2023-09-02T23:28:21.615Z,100.00
2023-09-02T23:30:56.556Z,100.00
2023-09-02T23:33:23.238Z,100.00
2023-09-02T23:35:56.543Z,100.00
2023-09-02T23:38:26.938Z,100.00
2023-09-02T23:40:55.261Z,100.00
2023-09-02T23:43:22.798Z,100.00
2023-09-02T23:45:50.484Z,100.00
2023-09-02T23:48:18.555Z,100.00
2023-09-02T23:50:51.538Z,100.00
2023-09-02T23:53:18.418Z,100.00
2023-09-02T23:55:46.639Z,100.00
2023-09-02T23:58:13.080Z,100.00
